Terminal Aerodrome Forecast
Issued by NWS

Home | Current Version | Previous Version | Text Only | Print | Product List | Glossary Off
Versions: 1 2 3 4 5 6 7 8 9 10 11 12 13 14 15 16 17 18 19 20 21 22 23

096
FTUS43 KABR 201723
TAFATY
TAF
KATY 201723Z 2018/2118 31004KT P6SM OVC090
     FM210900 01005KT P6SM VCSH OVC045
     FM211700 03009KT P6SM -SN OVC035=

USA.gov is the U.S. government's official web portal to all federal, state and local government web resources and services.